Time,TemperatureF,DewpointF,PressureIn,WindDirection,WindDirectionDegrees,WindSpeedMPH,WindSpeedGustMPH,Humidity,HourlyPrecipIn,Conditions,Clouds,dailyrainin,SolarRadiationWatts/m^2,SoftwareType,DateUTC
2013-07-03 00:25:00,84.0,46.0,-100.00,SSE,151,4.0,11.0,27,0.00,,,0.00,0.000000,,2013-07-03 07:25:00,
2013-07-03 00:45:00,84.0,46.0,-100.00,SSE,151,4.0,11.0,27,0.00,,,0.00,0.000000,,2013-07-03 07:45:00,
2013-07-03 00:54:00,84.0,46.0,-100.00,SSE,151,4.0,11.0,27,0.00,,,0.00,0.000000,,2013-07-03 07:54:00,
2013-07-03 01:24:00,84.0,47.0,-100.00,SSE,156,4.0,8.0,28,0.00,,,-99.99,0.000000,,2013-07-03 08:24:00,
2013-07-03 01:35:00,84.0,47.0,-100.00,SSE,156,4.0,8.0,28,0.00,,,-99.99,0.000000,,2013-07-03 08:35:00,
2013-07-03 01:43:00,84.0,47.0,-100.00,SSE,156,4.0,8.0,28,0.00,,,-99.99,0.000000,,2013-07-03 08:43:00,
2013-07-03 01:53:00,84.0,47.0,-100.00,SSE,156,4.0,8.0,28,0.00,,,-99.99,0.000000,,2013-07-03 08:53:00,
2013-07-03 02:45:00,83.0,47.0,-100.00,North,7,2.0,5.0,28,0.00,,,0.00,0.000000,,2013-07-03 09:45:00,
2013-07-03 03:25:00,81.0,46.0,-100.00,North,10,5.0,8.0,29,0.00,,,0.00,0.000000,,2013-07-03 10:25:00,
2013-07-03 03:35:00,81.0,46.0,-100.00,North,10,5.0,8.0,29,0.00,,,0.00,0.000000,,2013-07-03 10:35:00,
2013-07-03 03:43:00,81.0,46.0,-100.00,North,10,5.0,8.0,29,0.00,,,0.00,0.000000,,2013-07-03 10:43:00,
2013-07-03 04:23:00,81.0,46.0,-100.00,NNE,15,9.0,14.0,29,0.00,,,0.00,0.000000,,2013-07-03 11:23:00,
2013-07-03 04:42:00,81.0,46.0,-100.00,NNE,15,9.0,14.0,29,0.00,,,0.00,0.000000,,2013-07-03 11:42:00,
2013-07-03 04:53:00,81.0,46.0,-100.00,NNE,15,9.0,14.0,29,0.00,,,0.00,0.000000,,2013-07-03 11:53:00,
2013-07-03 05:22:00,80.0,45.0,-100.00,NNE,20,9.0,13.0,29,0.00,,,0.00,0.000000,,2013-07-03 12:22:00,
2013-07-03 05:35:00,80.0,45.0,-100.00,NNE,20,9.0,13.0,29,0.00,,,0.00,0.000000,,2013-07-03 12:35:00,
2013-07-03 05:43:00,80.0,45.0,-100.00,NNE,20,9.0,13.0,29,0.00,,,0.00,0.000000,,2013-07-03 12:43:00,
2013-07-03 05:54:00,80.0,45.0,-100.00,NNE,20,9.0,13.0,29,0.00,,,0.00,0.000000,,2013-07-03 12:54:00,
2013-07-03 06:24:00,80.0,47.0,-100.00,NNE,13,8.0,12.0,31,0.00,,,0.00,1.000000,,2013-07-03 13:24:00,
2013-07-03 06:35:00,80.0,47.0,-100.00,NNE,13,8.0,12.0,31,0.00,,,0.00,1.000000,,2013-07-03 13:35:00,
2013-07-03 06:45:00,80.0,47.0,-100.00,NNE,13,8.0,12.0,31,0.00,,,0.00,1.000000,,2013-07-03 13:45:00,
2013-07-03 06:53:00,80.0,47.0,-100.00,NNE,13,8.0,12.0,31,0.00,,,0.00,1.000000,,2013-07-03 13:53:00,
2013-07-03 07:45:00,80.0,47.0,-100.00,North,1,8.0,15.0,32,0.00,,,0.00,42.000000,,2013-07-03 14:45:00,
2013-07-03 07:53:00,80.0,47.0,-100.00,North,1,8.0,15.0,32,0.00,,,0.00,42.000000,,2013-07-03 14:53:00,
2013-07-03 08:24:00,82.0,47.0,-100.00,North,7,11.0,15.0,29,0.00,,,0.00,174.000000,,2013-07-03 15:24:00,
2013-07-03 08:36:00,82.0,47.0,-100.00,North,7,11.0,15.0,29,0.00,,,0.00,174.000000,,2013-07-03 15:36:00,
2013-07-03 08:45:00,82.0,47.0,-100.00,North,7,11.0,15.0,29,0.00,,,0.00,174.000000,,2013-07-03 15:45:00,
2013-07-03 08:54:00,82.0,47.0,-100.00,North,7,11.0,15.0,29,0.00,,,0.00,174.000000,,2013-07-03 15:54:00,
2013-07-03 09:23:00,86.0,49.0,-100.00,South,170,13.0,16.0,28,0.00,,,0.00,327.000000,,2013-07-03 16:23:00,
2013-07-03 09:44:00,86.0,49.0,-100.00,South,170,13.0,16.0,28,0.00,,,0.00,327.000000,,2013-07-03 16:44:00,
2013-07-03 09:54:00,86.0,49.0,-100.00,South,170,13.0,16.0,28,0.00,,,0.00,327.000000,,2013-07-03 16:54:00,
2013-07-03 10:24:00,87.0,47.0,-100.00,South,175,10.0,17.0,25,0.00,,,0.00,517.000000,,2013-07-03 17:24:00,
2013-07-03 10:36:00,87.0,47.0,-100.00,South,175,10.0,17.0,25,0.00,,,0.00,517.000000,,2013-07-03 17:36:00,
2013-07-03 10:46:00,87.0,47.0,-100.00,South,175,10.0,17.0,25,0.00,,,0.00,517.000000,,2013-07-03 17:46:00,
2013-07-03 10:52:00,87.0,47.0,-100.00,South,175,10.0,17.0,25,0.00,,,0.00,517.000000,,2013-07-03 17:52:00,
2013-07-03 11:23:00,88.0,49.0,-100.00,South,181,12.0,14.0,26,0.00,,,0.00,372.000000,,2013-07-03 18:23:00,
2013-07-03 11:35:00,88.0,49.0,-100.00,South,181,12.0,14.0,26,0.00,,,0.00,372.000000,,2013-07-03 18:35:00,
2013-07-03 11:44:00,88.0,49.0,-100.00,South,181,12.0,14.0,26,0.00,,,0.00,372.000000,,2013-07-03 18:44:00,
2013-07-03 11:55:00,88.0,49.0,-100.00,South,181,12.0,14.0,26,0.00,,,0.00,372.000000,,2013-07-03 18:55:00,
2013-07-03 12:34:00,87.0,47.0,-100.00,ESE,121,8.0,18.0,25,0.00,,,0.00,183.000000,,2013-07-03 19:34:00,
2013-07-03 12:44:00,87.0,47.0,-100.00,ESE,121,8.0,18.0,25,0.00,,,0.00,183.000000,,2013-07-03 19:44:00,
2013-07-03 12:54:00,87.0,47.0,-100.00,ESE,121,8.0,18.0,25,0.00,,,0.00,183.000000,,2013-07-03 19:54:00,
2013-07-03 13:23:00,95.0,49.0,-100.00,NW,324,4.0,11.0,21,0.00,,,0.00,457.000000,,2013-07-03 20:23:00,
2013-07-03 13:36:00,95.0,49.0,-100.00,NW,324,4.0,11.0,21,0.00,,,0.00,457.000000,,2013-07-03 20:36:00,
2013-07-03 13:43:00,95.0,49.0,-100.00,NW,324,4.0,11.0,21,0.00,,,0.00,457.000000,,2013-07-03 20:43:00,
2013-07-03 13:53:00,95.0,49.0,-100.00,NW,324,4.0,11.0,21,0.00,,,0.00,457.000000,,2013-07-03 20:53:00,
2013-07-03 14:23:00,95.0,48.0,-100.00,SSE,168,16.0,20.0,20,0.00,,,0.00,755.000000,,2013-07-03 21:23:00,
2013-07-03 14:34:00,95.0,48.0,-100.00,SSE,168,16.0,20.0,20,0.00,,,0.00,755.000000,,2013-07-03 21:34:00,
2013-07-03 14:52:00,95.0,48.0,-100.00,SSE,168,16.0,20.0,20,0.00,,,0.00,755.000000,,2013-07-03 21:52:00,
2013-07-03 15:35:00,97.0,48.0,-100.00,South,172,16.0,21.0,19,0.00,,,0.00,1021.000000,,2013-07-03 22:35:00,
2013-07-03 15:44:00,97.0,48.0,-100.00,South,172,16.0,21.0,19,0.00,,,0.00,1021.000000,,2013-07-03 22:44:00,
2013-07-03 15:53:00,97.0,48.0,-100.00,South,172,16.0,21.0,19,0.00,,,0.00,1021.000000,,2013-07-03 22:53:00,
2013-07-03 16:23:00,97.0,51.0,-100.00,SSE,166,21.0,29.0,21,0.00,,,0.00,731.000000,,2013-07-03 23:23:00,
2013-07-03 16:36:00,97.0,51.0,-100.00,SSE,166,21.0,29.0,21,0.00,,,0.00,731.000000,,2013-07-03 23:36:00,
2013-07-03 16:43:00,97.0,51.0,-100.00,SSE,166,21.0,29.0,21,0.00,,,0.00,731.000000,,2013-07-03 23:43:00,
2013-07-03 16:52:00,97.0,51.0,-100.00,SSE,166,21.0,29.0,21,0.00,,,0.00,731.000000,,2013-07-03 23:52:00,
2013-07-03 17:35:00,98.0,50.0,-100.00,South,173,18.0,27.0,20,0.00,,,0.00,669.000000,,2013-07-04 00:35:00,
2013-07-03 17:44:00,98.0,50.0,-100.00,South,173,18.0,27.0,20,0.00,,,0.00,669.000000,,2013-07-04 00:44:00,
2013-07-03 17:54:00,98.0,50.0,-100.00,South,173,18.0,27.0,20,0.00,,,0.00,669.000000,,2013-07-04 00:54:00,
2013-07-03 18:23:00,102.0,50.0,-100.00,NNW,331,11.0,22.0,18,0.00,,,0.00,493.000000,,2013-07-04 01:23:00,
2013-07-03 18:34:00,102.0,50.0,-100.00,NNW,331,11.0,22.0,18,0.00,,,0.00,493.000000,,2013-07-04 01:34:00,
2013-07-03 18:43:00,102.0,50.0,-100.00,NNW,331,11.0,22.0,18,0.00,,,0.00,493.000000,,2013-07-04 01:43:00,
2013-07-03 18:52:00,102.0,50.0,-100.00,NNW,331,11.0,22.0,18,0.00,,,0.00,493.000000,,2013-07-04 01:52:00,
2013-07-03 19:22:00,96.0,50.0,-100.00,NW,305,18.0,28.0,21,0.00,,,0.00,282.000000,,2013-07-04 02:22:00,
2013-07-03 19:36:00,96.0,50.0,-100.00,NW,305,18.0,28.0,21,0.00,,,0.00,282.000000,,2013-07-04 02:36:00,
2013-07-03 19:45:00,96.0,50.0,-100.00,NW,305,18.0,28.0,21,0.00,,,0.00,282.000000,,2013-07-04 02:45:00,
2013-07-03 19:53:00,96.0,50.0,-100.00,NW,305,18.0,28.0,21,0.00,,,0.00,282.000000,,2013-07-04 02:53:00,
2013-07-03 20:26:00,93.0,51.0,-100.00,SE,141,9.0,23.0,24,0.00,,,0.00,77.000000,,2013-07-04 03:26:00,
2013-07-03 20:34:00,93.0,51.0,-100.00,SE,141,9.0,23.0,24,0.00,,,0.00,77.000000,,2013-07-04 03:34:00,
2013-07-03 20:44:00,93.0,51.0,-100.00,SE,141,9.0,23.0,24,0.00,,,0.00,77.000000,,2013-07-04 03:44:00,
2013-07-03 21:22:00,89.0,51.0,-100.00,SSE,164,10.0,20.0,27,0.00,,,0.00,3.000000,,2013-07-04 04:22:00,
2013-07-03 21:33:00,89.0,51.0,-100.00,SSE,164,10.0,20.0,27,0.00,,,0.00,3.000000,,2013-07-04 04:33:00,
2013-07-03 21:43:00,89.0,51.0,-100.00,SSE,164,10.0,20.0,27,0.00,,,0.00,3.000000,,2013-07-04 04:43:00,
2013-07-03 21:52:00,89.0,51.0,-100.00,SSE,164,10.0,20.0,27,0.00,,,0.00,3.000000,,2013-07-04 04:52:00,
2013-07-03 22:32:00,86.0,51.0,-100.00,South,176,9.0,18.0,30,0.00,,,0.00,0.000000,,2013-07-04 05:32:00,
2013-07-03 22:43:00,86.0,51.0,-100.00,South,176,9.0,18.0,30,0.00,,,0.00,0.000000,,2013-07-04 05:43:00,
2013-07-03 22:52:00,86.0,51.0,-100.00,South,176,9.0,18.0,30,0.00,,,0.00,0.000000,,2013-07-04 05:52:00,
2013-07-03 23:22:00,85.0,51.0,-100.00,SE,144,1.0,11.0,31,0.00,,,0.00,0.000000,,2013-07-04 06:22:00,
2013-07-03 23:34:00,85.0,51.0,-100.00,SE,144,1.0,11.0,31,0.00,,,0.00,0.000000,,2013-07-04 06:34:00,
2013-07-03 23:43:00,85.0,51.0,-100.00,SE,144,1.0,11.0,31,0.00,,,0.00,0.000000,,2013-07-04 06:43:00,
2013-07-03 23:52:00,85.0,51.0,-100.00,SE,144,1.0,11.0,31,0.00,,,0.00,0.000000,,2013-07-04 06:52:00,